createdAt,value
2022-10-01T00:08:00.645Z,209
2022-10-01T00:28:07.557Z,209
2022-10-01T00:48:00.537Z,203
2022-10-01T01:08:00.364Z,202
2022-10-01T01:28:00.477Z,201
2022-10-01T01:48:00.620Z,201
2022-10-01T02:08:00.651Z,204
2022-10-01T02:28:00.738Z,205
2022-10-01T02:48:00.719Z,202
2022-10-01T03:08:00.743Z,205
2022-10-01T03:28:00.591Z,209
2022-10-01T04:08:00.833Z,206
2022-10-01T04:28:00.940Z,210
2022-10-01T04:48:00.944Z,211
2022-10-01T05:08:00.926Z,212
2022-10-01T05:28:07.987Z,209
2022-10-01T05:48:00.991Z,216
2022-10-01T06:08:00.847Z,214
2022-10-01T06:28:01.130Z,220
2022-10-01T06:48:01.091Z,223
2022-10-01T07:08:00.926Z,222
2022-10-01T07:28:01.188Z,227
2022-10-01T07:48:08.197Z,227
2022-10-01T08:08:01.192Z,232
2022-10-01T08:28:01.265Z,245
2022-10-01T08:48:01.264Z,261
2022-10-01T09:08:01.291Z,280
2022-10-01T09:28:01.343Z,294
2022-10-01T09:48:01.144Z,290
2022-10-01T10:08:01.376Z,296
2022-10-01T10:28:01.418Z,296
2022-10-01T10:48:01.424Z,290
2022-10-01T11:08:01.438Z,293
2022-10-01T11:28:01.500Z,288
2022-10-01T11:48:01.294Z,287
2022-10-01T12:28:01.520Z,298
2022-10-01T12:48:01.466Z,296
2022-10-01T13:08:01.482Z,296
2022-10-01T13:28:01.565Z,295
2022-10-01T13:48:01.549Z,301
2022-10-01T14:08:01.655Z,289
2022-10-01T14:28:01.701Z,284
2022-10-01T14:48:01.616Z,283
2022-10-01T15:08:01.743Z,277
2022-10-01T15:28:01.796Z,279
2022-10-01T15:48:01.687Z,273
2022-10-01T16:08:01.612Z,267
2022-10-01T16:28:01.694Z,264
2022-10-01T16:48:01.856Z,263
2022-10-01T17:08:01.787Z,264
2022-10-01T17:28:01.959Z,256
2022-10-01T17:48:01.850Z,256
2022-10-01T18:28:02.082Z,264
2022-10-01T18:48:02.006Z,266
2022-10-01T19:08:02.063Z,258
2022-10-01T19:28:02.110Z,259
2022-10-01T19:48:02.098Z,267
2022-10-01T20:08:02.131Z,273
2022-10-01T20:28:02.325Z,275
2022-10-01T20:48:02.194Z,274
2022-10-01T21:08:02.219Z,271
2022-10-01T21:48:02.299Z,269
2022-10-01T22:08:02.312Z,262
2022-10-01T22:28:02.396Z,261
2022-10-01T22:48:02.379Z,263
2022-10-01T23:08:02.433Z,265
2022-10-01T23:28:02.487Z,265
2022-10-01T23:48:02.503Z,263
